Time;durP1;ratioP1;P1;durP2;ratioP2;P2;SDS_P1;SDS_P2;PMS_P1;PMS_P2;Temp;Humidity;BMP_temperature;BMP_pressure;BME280_temperature;BME280_humidity;BME280_pressure;Samples;Min_cycle;Max_cycle;Signal;HPM_P1;HPM_P2
2021/03/23 00:09:16;;;;;;;153.73;64.47;;;;;;;-1.00;70.48;99325.40;4350892;80;21331;-83
2021/03/23 00:15:39;;;;;;;148.60;61.40;;;;;;;-0.97;69.91;99314.84;4355071;80;21205;-83
2021/03/23 00:21:42;;;;;;;137.17;59.87;;;;;;;-0.88;70.42;99318.48;4353972;80;21178;-84
2021/03/23 00:27:44;;;;;;;140.67;59.17;;;;;;;-0.70;70.37;99300.17;4352874;80;21170;-83
2021/03/23 00:34:11;;;;;;;138.47;58.17;;;;;;;-0.62;70.42;99300.84;4307149;81;21205;-83
2021/03/23 00:40:16;;;;;;;;;;;;;;;-0.57;70.44;99308.03;4456593;78;21189;-82
2021/03/23 00:46:56;;;;;;;147.50;59.77;;;;;;;-0.53;70.78;99309.02;4449900;77;20213;-83
2021/03/23 00:53:00;;;;;;;153.60;60.03;;;;;;;-0.50;70.72;99311.93;4456041;77;21184;-83
2021/03/23 00:59:02;;;;;;;144.10;60.70;;;;;;;-0.49;70.83;99307.36;4451566;77;21148;-86
2021/03/23 01:19:02;;;;;;;129.90;57.10;;;;;;;-0.41;71.53;99287.28;4460192;77;21559;-84
2021/03/23 01:25:30;;;;;;;136.70;57.90;;;;;;;-0.45;71.47;99286.84;4437150;77;21325;-84
2021/03/23 01:31:32;;;;;;;135.30;58.20;;;;;;;-0.47;72.08;99291.73;4471795;77;21638;-84
2021/03/23 01:37:35;;;;;;;127.97;54.80;;;;;;;-0.40;72.09;99298.31;4313250;81;21177;-84
2021/03/23 01:43:39;;;;;;;122.60;53.10;;;;;;;-0.35;72.09;99303.61;4470090;77;21340;-84
2021/03/23 01:49:52;;;;;;;105.87;47.63;;;;;;;-0.37;72.48;99300.41;4472537;77;21155;-86
2021/03/23 02:02:44;;;;;;;116.17;48.73;;;;;;;-0.24;73.02;99306.91;4473810;77;21104;-84
2021/03/23 02:09:02;;;;;;;111.43;48.67;;;;;;;-0.22;73.15;99297.44;4473341;77;21758;-84
2021/03/23 02:15:06;;;;;;;106.27;46.67;;;;;;;-0.17;73.08;99280.40;4473334;77;21165;-84
2021/03/23 02:21:29;;;;;;;96.13;44.30;;;;;;;-0.18;73.74;99275.58;4313919;80;21181;-84
2021/03/23 02:27:53;;;;;;;100.23;45.43;;;;;;;-0.22;73.31;99285.90;4428479;77;21671;-85
2021/03/23 02:34:06;;;;;;;100.83;46.30;;;;;;;-0.16;73.32;99287.39;4447985;77;21199;-85
2021/03/23 02:40:20;;;;;;;100.50;44.60;;;;;;;-0.16;73.26;99280.09;4449484;77;21194;-85
2021/03/23 02:46:31;;;;;;;92.37;43.70;;;;;;;-0.13;73.29;99280.88;4289685;81;21205;-85
2021/03/23 02:52:44;;;;;;;94.93;44.03;;;;;;;-0.09;73.39;99270.29;4418478;77;21179;-85
2021/03/23 02:58:55;;;;;;;101.77;43.63;;;;;;;-0.15;73.44;99266.11;4448774;77;21183;-85
2021/03/23 03:04:59;;;;;;;89.57;39.37;;;;;;;-0.08;73.63;99275.38;4451333;78;21194;-86
2021/03/23 03:11:34;;;;;;;84.87;40.80;;;;;;;-0.07;73.46;99264.88;4455717;77;21499;-85
2021/03/23 03:17:39;;;;;;;89.95;39.20;;;;;;;-0.08;73.70;99266.52;4444109;78;22070;-85
2021/03/23 03:23:45;;;;;;;74.27;34.93;;;;;;;-0.08;73.66;99265.18;4453962;77;21190;-86
2021/03/23 03:29:49;;;;;;;73.10;33.40;;;;;;;-0.04;73.47;99273.70;4413706;78;21191;-85
2021/03/23 03:35:52;;;;;;;79.53;36.87;;;;;;;-0.02;73.46;99276.09;4388676;79;21648;-85
2021/03/23 03:41:56;;;;;;;76.07;36.10;;;;;;;-0.01;73.50;99278.48;4380567;80;21199;-85
2021/03/23 03:48:08;;;;;;;72.23;33.63;;;;;;;0.03;73.54;99270.61;4387851;79;21685;-84
2021/03/23 03:54:11;;;;;;;73.73;33.27;;;;;;;0.05;73.76;99260.33;4381030;79;21158;-84
2021/03/23 04:00:26;;;;;;;67.97;31.67;;;;;;;0.08;73.96;99262.41;4392214;79;21607;-84
2021/03/23 04:06:27;;;;;;;67.20;30.37;;;;;;;0.08;74.05;99262.98;4371830;79;21597;-85
2021/03/23 04:12:29;;;;;;;73.53;30.07;;;;;;;0.10;73.97;99264.27;4352246;79;196601;-84
2021/03/23 04:18:45;;;;;;;60.57;29.87;;;;;;;0.13;73.92;99269.05;4274203;81;21288;-86
2021/03/23 04:24:47;;;;;;;64.00;29.72;;;;;;;0.16;73.88;99274.40;4277745;81;21225;-85
2021/03/23 04:30:49;;;;;;;56.07;26.80;;;;;;;0.20;73.98;99274.84;4330078;79;21164;-84
2021/03/23 04:37:00;;;;;;;69.53;29.20;;;;;;;0.25;74.03;99282.02;4371273;80;21534;-86
2021/03/23 04:43:07;;;;;;;64.83;28.97;;;;;;;0.30;73.99;99279.22;4330276;81;21203;-85
2021/03/23 04:49:28;;;;;;;59.27;27.60;;;;;;;0.32;74.04;99287.77;4367407;80;21153;-86
2021/03/23 04:55:41;;;;;;;55.27;26.20;;;;;;;0.35;74.03;99283.94;4374813;80;21515;-86
2021/03/23 05:01:49;;;;;;;51.77;25.37;;;;;;;0.39;74.01;99289.53;4324263;80;21150;-85
2021/03/23 05:07:51;;;;;;;55.60;27.30;;;;;;;0.41;74.00;99289.47;4255063;82;21669;-84
2021/03/23 05:13:56;;;;;;;59.10;26.97;;;;;;;0.44;73.87;99288.08;4247484;81;21520;-84
2021/03/23 05:27:06;;;;;;;59.07;25.17;;;;;;;0.55;73.69;99286.77;4252843;82;21151;-85
2021/03/23 05:33:21;;;;;;;50.58;23.10;;;;;;;0.61;73.58;99283.64;4207139;82;21714;-85
2021/03/23 05:39:23;;;;;;;50.40;22.67;;;;;;;0.68;73.58;99291.31;4210722;82;21176;-85
2021/03/23 05:46:08;;;;;;;51.27;22.63;;;;;;;0.79;73.63;99284.59;4204683;82;22172;-85
2021/03/23 05:52:39;;;;;;;51.20;22.45;;;;;;;0.95;73.62;99293.94;4444808;79;23299;-84
2021/03/23 05:58:52;;;;;;;43.33;21.48;;;;;;;1.01;73.59;99296.22;4385029;80;21382;-84
2021/03/23 06:05:23;;;;;;;50.73;22.55;;;;;;;1.15;73.16;99301.55;4377005;80;21539;-87
2021/03/23 06:11:48;;;;;;;42.98;20.52;;;;;;;1.28;73.09;99295.31;4382069;80;21649;-86
2021/03/23 06:18:24;;;;;;;33.17;16.00;;;;;;;1.42;72.89;99300.89;4385609;80;21214;-89
2021/03/23 06:24:40;;;;;;;39.15;18.87;;;;;;;1.61;72.95;99310.91;4389550;80;21222;-88
2021/03/23 06:30:55;;;;;;;53.53;21.97;;;;;;;1.72;72.30;99299.32;4358705;80;21350;-88
2021/03/23 06:36:59;;;;;;;50.17;20.40;;;;;;;1.95;72.55;99309.50;4390776;80;21604;-90
2021/03/23 06:43:24;;;;;;;42.17;20.15;;;;;;;2.11;72.29;99320.95;4387100;80;21585;-89
2021/03/23 06:49:36;;;;;;;46.00;20.55;;;;;;;2.34;72.35;99310.30;4386406;80;21150;-88
2021/03/23 06:55:42;;;;;;;38.65;17.87;;;;;;;2.53;72.09;99323.00;4398219;80;21788;-89
2021/03/23 07:01:47;;;;;;;41.45;18.23;;;;;;;2.68;70.96;99318.49;4392890;80;21189;-91
2021/03/23 07:07:56;;;;;;;40.80;17.65;;;;;;;2.75;71.00;99320.73;4401524;80;21162;-89
2021/03/23 07:13:58;;;;;;;36.75;16.90;;;;;;;2.82;70.74;99316.99;4302513;80;37313;-92
2021/03/23 07:20:26;;;;;;;36.23;15.23;;;;;;;2.94;70.57;99311.20;4151244;84;21381;-90
2021/03/23 07:26:36;;;;;;;31.50;15.53;;;;;;;3.09;70.10;99301.28;4150217;84;21242;-90
2021/03/23 07:32:46;;;;;;;29.98;14.73;;;;;;;3.35;69.78;99309.95;4129206;84;21345;-90
2021/03/23 07:39:09;;;;;;;35.80;15.03;;;;;;;3.54;69.21;99307.12;4153969;84;21202;-91
2021/03/23 07:46:00;;;;;;;35.55;15.32;;;;;;;3.64;68.96;99314.11;4151849;84;21172;-92
2021/03/23 07:52:32;;;;;;;46.37;17.30;;;;;;;3.68;68.38;99311.02;4118175;84;21203;-91
2021/03/23 07:59:05;;;;;;;34.63;15.65;;;;;;;3.84;68.05;99321.00;4099505;85;21204;-92
2021/03/23 08:05:40;;;;;;;36.83;17.05;;;;;;;3.93;67.84;99313.64;4099022;85;21207;-92
2021/03/23 08:12:00;;;;;;;;;;;;;;;4.06;67.66;99329.45;4110442;85;21219;-92
2021/03/23 08:18:31;;;;;;;37.10;16.05;;;;;;;4.17;66.80;99319.85;4099706;85;20211;-91
2021/03/23 08:24:56;;;;;;;41.08;16.75;;;;;;;4.12;67.28;99321.41;4105786;85;21313;-92
2021/03/23 08:31:40;;;;;;;39.48;18.48;;;;;;;4.08;67.25;99323.96;4106832;85;21209;-91
2021/03/23 08:37:49;;;;;;;40.48;17.90;;;;;;;4.05;67.48;99325.16;4110582;85;21938;-91
2021/03/23 08:43:53;;;;;;;39.50;18.45;;;;;;;4.09;67.44;99320.67;4051962;84;50492;-90
2021/03/23 08:50:15;;;;;;;42.27;18.17;;;;;;;4.18;66.75;99319.52;4070100;85;21267;-90
2021/03/23 09:02:55;;;;;;;41.70;19.15;;;;;;;4.30;65.88;99325.63;4584271;76;23317;-90
2021/03/23 09:29:55;;;;;;;50.45;20.65;;;;;;;4.65;66.12;99334.61;4529362;77;22976;-88
2021/03/23 09:42:32;;;;;;;51.23;21.33;;;;;;;5.16;64.93;99317.20;4580587;76;23448;-89
2021/03/23 09:48:50;;;;;;;41.33;19.57;;;;;;;5.30;65.36;99306.87;4486465;78;21149;-89
2021/03/23 09:55:01;;;;;;;47.27;20.95;;;;;;;5.62;65.12;99295.22;4487524;78;21133;-90
2021/03/23 10:01:23;;;;;;;47.90;20.62;;;;;;;6.34;64.92;99301.40;4493344;78;21243;-89
2021/03/23 10:07:35;;;;;;;45.65;20.30;;;;;;;6.93;64.14;99283.98;4493845;78;22448;-91
2021/03/23 10:13:37;;;;;;;46.20;21.15;;;;;;;7.18;63.59;99285.51;4493368;78;21144;-91
2021/03/23 10:19:56;;;;;;;42.65;19.42;;;;;;;7.52;63.09;99281.63;4497423;78;21192;-90
2021/03/23 10:26:03;;;;;;;37.75;18.48;;;;;;;7.69;62.41;99284.60;4490459;78;21180;-92
2021/03/23 10:32:24;;;;;;;48.80;19.77;;;;;;;7.49;62.45;99284.25;4516320;77;21148;-90
2021/03/23 10:38:40;;;;;;;37.95;19.12;;;;;;;7.03;62.56;99287.02;4484926;77;21597;-91
2021/03/23 10:44:44;;;;;;;37.73;17.90;;;;;;;6.51;62.71;99289.48;4488353;78;21177;-89
2021/03/23 10:51:10;;;;;;;32.60;16.17;;;;;;;6.07;63.17;99293.34;4486676;78;21153;-90
2021/03/23 10:57:33;;;;;;;36.40;16.75;;;;;;;5.92;63.42;99285.81;4461188;78;21367;-89
2021/03/23 11:03:40;;;;;;;32.78;15.95;;;;;;;5.94;64.25;99293.08;4521341;77;21232;-90
2021/03/23 11:09:44;;;;;;;41.30;16.75;;;;;;;6.00;64.46;99294.44;4491907;78;21307;-92
2021/03/23 11:15:47;;;;;;;32.70;15.18;;;;;;;5.98;64.76;99293.98;4493060;78;21192;-90
2021/03/23 11:21:49;;;;;;;32.33;15.60;;;;;;;6.08;64.68;99298.19;4485496;78;21144;-90
2021/03/23 11:27:52;;;;;;;38.15;16.05;;;;;;;6.14;64.84;99290.84;4493227;78;21184;-90
2021/03/23 11:33:56;;;;;;;30.70;14.93;;;;;;;6.53;65.28;99281.20;4489991;78;21199;-90
2021/03/23 11:39:58;;;;;;;37.38;16.73;;;;;;;7.10;64.99;99276.34;4490764;78;21285;-89
2021/03/23 11:46:23;;;;;;;33.83;17.10;;;;;;;7.42;64.39;99274.54;4493357;78;21207;-90
2021/03/23 11:52:36;;;;;;;27.75;11.28;;;;;;;7.93;63.93;99266.76;4538115;77;22970;-90
2021/03/23 11:58:41;;;;;;;32.00;17.10;;;;;;;7.91;63.27;99273.92;4478904;78;21208;-90
2021/03/23 12:04:50;;;;;;;37.98;18.37;;;;;;;7.95;63.15;99272.66;4481768;78;21185;-89
2021/03/23 12:11:09;;;;;;;42.43;20.40;;;;;;;8.15;63.51;99266.16;4351647;76;36675;-90
2021/03/23 12:17:55;;;;;;;35.30;19.45;;;;;;;8.13;62.93;99277.20;4499558;77;26710;-87
2021/03/23 12:23:57;;;;;;;35.05;19.40;;;;;;;7.81;63.42;99270.93;4420169;79;21158;-89
2021/03/23 12:30:03;;;;;;;39.70;22.02;;;;;;;7.77;63.63;99270.03;4227685;82;21236;-89
2021/03/23 12:36:21;;;;;;;39.78;22.87;;;;;;;7.87;63.68;99266.24;4253292;82;21194;-86
2021/03/23 12:42:48;;;;;;;39.27;22.52;;;;;;;7.81;63.20;99274.43;4244787;82;21177;-88
2021/03/23 12:48:50;;;;;;;41.98;20.50;;;;;;;7.40;63.46;99270.80;4408581;79;21156;-87
2021/03/23 12:54:55;;;;;;;40.65;21.85;;;;;;;7.38;63.42;99277.16;4421845;78;21154;-88
2021/03/23 13:00:57;;;;;;;38.90;22.90;;;;;;;7.29;63.69;99280.60;4416465;79;21626;-88
2021/03/23 13:07:04;;;;;;;37.90;21.30;;;;;;;7.27;64.13;99281.52;4237978;82;21214;-88
2021/03/23 13:13:17;;;;;;;38.42;21.27;;;;;;;7.33;64.45;99274.67;4436464;78;21167;-88
2021/03/23 15:25:33;;;;;;;30.90;18.62;;;;;;;6.24;67.25;99263.22;4574710;75;22600;-88
2021/03/23 15:31:35;;;;;;;35.45;18.32;;;;;;;6.17;67.32;99270.36;4300658;77;129791;-90
2021/03/23 15:37:37;;;;;;;35.55;18.52;;;;;;;6.16;67.34;99268.20;4195094;77;106694;-88
2021/03/23 15:43:39;;;;;;;37.13;18.57;;;;;;;6.18;67.19;99263.22;4187860;84;21361;-87
2021/03/23 15:49:41;;;;;;;36.28;18.07;;;;;;;6.19;67.23;99277.58;4187099;84;21205;-91
2021/03/23 15:55:43;;;;;;;30.75;16.20;;;;;;;6.19;67.23;99275.67;4195460;81;69601;-88
2021/03/23 16:01:45;;;;;;;29.55;16.42;;;;;;;6.16;67.13;99285.86;4218104;84;21208;-88
2021/03/23 16:07:48;;;;;;;26.15;13.95;;;;;;;6.11;67.02;99284.72;4221091;84;21200;-88
2021/03/23 16:13:50;;;;;;;31.02;15.40;;;;;;;6.06;66.81;99280.86;4214934;84;21369;-89
2021/03/23 16:19:51;;;;;;;27.20;15.05;;;;;;;6.01;66.85;99293.30;4204924;83;21223;-88
2021/03/23 16:25:53;;;;;;;30.20;15.28;;;;;;;6.04;66.98;99293.20;4222646;84;21184;-88
2021/03/23 16:31:57;;;;;;;33.63;15.53;;;;;;;6.07;66.72;99291.98;4225769;84;21247;-88
2021/03/23 16:38:01;;;;;;;32.28;15.08;;;;;;;6.10;66.70;99299.45;4216503;84;21730;-88
2021/03/23 16:44:03;;;;;;;31.52;16.00;;;;;;;6.07;66.80;99300.13;4218662;84;21136;-86
2021/03/23 16:50:05;;;;;;;33.40;17.25;;;;;;;6.01;66.75;99305.53;4219142;84;21735;-88
2021/03/23 16:56:20;;;;;;;33.63;17.45;;;;;;;5.94;66.68;99305.86;4220581;84;21334;-87
2021/03/23 17:02:27;;;;;;;34.98;17.37;;;;;;;5.88;66.81;99304.49;4218832;84;21136;-88
2021/03/23 17:08:28;;;;;;;32.37;18.47;;;;;;;5.81;66.87;99322.66;4217474;84;21199;-88
2021/03/23 17:14:30;;;;;;;40.25;19.40;;;;;;;5.74;66.98;99319.72;4239930;83;21691;-88
2021/03/23 17:20:44;;;;;;;41.45;21.20;;;;;;;5.69;67.05;99331.34;4282980;82;21194;-88
2021/03/23 17:26:46;;;;;;;41.42;21.90;;;;;;;5.65;67.21;99332.59;4161022;84;21202;-88
2021/03/23 17:32:48;;;;;;;44.15;22.22;;;;;;;5.63;67.36;99332.13;4164512;84;21182;-88
2021/03/23 17:38:50;;;;;;;48.80;23.25;;;;;;;5.63;67.45;99345.70;4171931;84;21169;-88
2021/03/23 17:44:52;;;;;;;51.37;23.95;;;;;;;5.60;67.61;99357.80;4166386;84;21209;-88
2021/03/23 17:50:57;;;;;;;47.17;24.52;;;;;;;5.54;67.77;99364.01;4088258;86;21206;-88
2021/03/23 17:56:58;;;;;;;51.00;24.07;;;;;;;5.48;67.98;99371.33;4091033;86;21378;-88
2021/03/23 18:03:16;;;;;;;52.70;25.80;;;;;;;5.42;68.09;99372.66;4053255;87;21198;-88
2021/03/23 18:09:18;;;;;;;49.08;27.07;;;;;;;5.37;68.15;99380.41;4046154;87;21204;-88
2021/03/23 18:15:22;;;;;;;55.17;26.93;;;;;;;5.33;68.29;99384.92;4165733;84;21193;-87
2021/03/23 18:21:25;;;;;;;46.53;25.45;;;;;;;5.30;68.56;99385.59;4184226;83;21231;-88
2021/03/23 18:27:27;;;;;;;42.08;23.35;;;;;;;5.36;68.54;99389.69;4286442;82;21613;-88
2021/03/23 18:33:29;;;;;;;46.08;25.80;;;;;;;5.40;68.64;99396.06;4288838;82;21196;-88
2021/03/23 18:39:30;;;;;;;46.42;25.23;;;;;;;5.39;68.59;99393.10;4284650;82;21192;-87
2021/03/23 18:45:36;;;;;;;50.08;27.15;;;;;;;5.36;68.70;99395.67;4291854;82;21178;-87
2021/03/23 18:51:55;;;;;;;45.70;24.85;;;;;;;5.32;69.06;99403.70;4290220;82;21323;-87
2021/03/23 18:57:58;;;;;;;44.40;24.85;;;;;;;5.26;69.15;99399.57;4246203;82;21275;-88
2021/03/23 19:03:59;;;;;;;57.55;30.82;;;;;;;5.25;69.40;99407.49;4279230;82;21307;-88
2021/03/23 19:10:01;;;;;;;63.23;33.88;;;;;;;5.24;69.62;99407.83;4288760;82;21164;-88
2021/03/23 19:16:05;;;;;;;59.53;31.97;;;;;;;5.18;69.89;99417.29;4291623;82;21176;-87
2021/03/23 19:22:06;;;;;;;68.92;34.23;;;;;;;5.09;70.12;99413.84;4283755;83;21192;-87
2021/03/23 19:28:10;;;;;;;61.58;31.17;;;;;;;4.99;70.39;99420.98;4278287;83;21200;-87
2021/03/23 19:34:13;;;;;;;65.80;33.25;;;;;;;4.90;70.46;99419.70;4274161;83;21127;-88
2021/03/23 19:40:23;;;;;;;67.53;34.43;;;;;;;4.83;70.70;99426.17;4272602;83;21708;-88
2021/03/23 19:46:25;;;;;;;65.42;33.10;;;;;;;4.81;71.09;99429.22;4269543;83;21189;-86
2021/03/23 19:52:28;;;;;;;60.78;33.25;;;;;;;4.77;71.21;99433.72;4276685;83;21196;-88
2021/03/23 19:58:29;;;;;;;76.42;35.88;;;;;;;4.74;71.65;99426.20;4270051;83;21234;-87
2021/03/23 20:04:31;;;;;;;68.35;34.98;;;;;;;4.66;71.74;99435.75;4261782;83;21184;-87
2021/03/23 20:10:33;;;;;;;66.95;34.10;;;;;;;4.63;71.83;99435.05;4262716;83;21290;-87
2021/03/23 20:16:35;;;;;;;73.87;37.10;;;;;;;4.61;72.24;99434.56;4272393;83;21226;-87
2021/03/23 20:22:40;;;;;;;76.55;35.50;;;;;;;4.59;72.37;99440.87;4270948;83;21307;-88
2021/03/23 20:28:43;;;;;;;66.10;36.10;;;;;;;4.57;72.67;99443.13;4261188;83;21169;-88
2021/03/23 20:34:44;;;;;;;66.47;33.95;;;;;;;4.55;72.79;99453.49;4259169;83;21759;-88
2021/03/23 20:40:46;;;;;;;62.33;32.50;;;;;;;4.52;72.91;99453.59;4253847;83;21191;-87
2021/03/23 20:46:47;;;;;;;66.85;33.00;;;;;;;4.54;72.98;99443.78;4256666;83;21200;-89
2021/03/23 20:52:53;;;;;;;62.13;32.00;;;;;;;4.57;73.15;99445.84;4261044;83;21339;-86
2021/03/23 20:58:55;;;;;;;58.38;30.25;;;;;;;4.53;73.17;99451.11;4261235;83;21177;-87
2021/03/23 21:04:56;;;;;;;58.00;30.48;;;;;;;4.53;73.46;99455.17;4254039;83;21149;-87
2021/03/23 21:11:13;;;;;;;60.05;30.62;;;;;;;4.55;73.48;99471.92;4210793;81;1553689;-88
2021/03/23 21:17:15;;;;;;;65.08;31.80;;;;;;;4.55;73.58;99481.41;4215332;83;21222;-88
2021/03/23 21:23:25;;;;;;;59.90;29.35;;;;;;;4.53;73.70;99488.26;4226626;83;22401;-88
2021/03/23 21:29:36;;;;;;;56.00;26.73;;;;;;;4.50;73.67;99487.00;4220677;83;21190;-87
2021/03/23 21:35:39;;;;;;;54.50;27.20;;;;;;;4.51;73.76;99495.94;4218729;83;21325;-88
2021/03/23 21:41:46;;;;;;;58.60;27.90;;;;;;;4.47;73.90;99493.07;4215420;83;21361;-88
2021/03/23 21:47:47;;;;;;;61.83;28.95;;;;;;;4.49;74.52;99495.45;4238751;83;21636;-88
2021/03/23 21:53:50;;;;;;;57.43;27.93;;;;;;;4.36;74.20;99480.17;4221832;83;21896;-88
2021/03/23 21:59:52;;;;;;;56.63;28.02;;;;;;;4.43;74.54;99496.17;4232126;83;21186;-88
2021/03/23 22:06:12;;;;;;;56.70;28.47;;;;;;;4.43;74.66;99497.53;4227260;83;21186;-88
2021/03/23 22:12:13;;;;;;;59.33;28.70;;;;;;;4.43;74.85;99501.59;4230694;83;21178;-87
2021/03/23 22:18:15;;;;;;;51.85;25.08;;;;;;;4.44;74.98;99506.47;4225618;83;21659;-88
2021/03/23 22:24:17;;;;;;;55.50;27.20;;;;;;;4.43;75.05;99504.30;4228228;83;21216;-87
2021/03/23 22:30:27;;;;;;;54.25;27.67;;;;;;;4.48;75.12;99501.98;4201202;83;21681;-87
2021/03/23 22:37:01;;;;;;;57.73;29.55;;;;;;;4.47;75.19;99517.47;4212009;83;21229;-87
2021/03/23 22:43:05;;;;;;;55.98;26.68;;;;;;;4.47;75.29;99514.76;4194863;83;21217;-89
2021/03/23 22:49:07;;;;;;;53.70;26.62;;;;;;;4.45;75.36;99515.63;4224264;83;21403;-87
2021/03/23 22:55:10;;;;;;;45.08;23.30;;;;;;;4.43;75.49;99509.73;4193416;83;21348;-88
2021/03/23 23:01:11;;;;;;;43.20;20.97;;;;;;;4.48;75.48;99508.75;4210590;83;21792;-87
2021/03/23 23:14:25;;;;;;;41.77;21.57;;;;;;;4.54;75.46;99504.20;4206571;83;21367;-88
2021/03/23 23:33:03;;;;;;;35.68;19.00;;;;;;;4.54;75.40;99508.84;4438894;78;21177;-88
2021/03/23 23:39:12;;;;;;;38.23;20.27;;;;;;;4.54;75.60;99505.55;4272284;81;21127;-88
2021/03/23 23:45:18;;;;;;;37.10;20.48;;;;;;;4.50;75.71;99518.18;4322214;81;21165;-88
2021/03/23 23:51:36;;;;;;;35.63;19.90;;;;;;;4.45;76.04;99523.77;4336681;81;21212;-88
2021/03/23 23:57:38;;;;;;;40.17;20.95;;;;;;;4.41;76.34;99523.38;4386808;79;21300;-89
